createdAt,value
2018-05-09T00:01:14.231Z,16.71
2018-05-09T00:03:41.694Z,16.66
2018-05-09T00:06:09.059Z,16.56
2018-05-09T00:08:36.460Z,16.49
2018-05-09T00:11:03.888Z,16.47
2018-05-09T00:13:31.302Z,16.45
2018-05-09T00:15:58.700Z,16.43
2018-05-09T00:18:26.126Z,16.41
2018-05-09T00:20:53.520Z,16.37
2018-05-09T00:23:20.932Z,16.29
2018-05-09T00:25:48.340Z,16.24
2018-05-09T00:28:15.756Z,16.21
2018-05-09T00:30:43.175Z,16.21
2018-05-09T00:33:10.576Z,16.18
2018-05-09T00:35:38.309Z,16.13
2018-05-09T00:38:05.709Z,16.09
2018-05-09T00:40:33.104Z,16.04
2018-05-09T00:43:00.520Z,16.00
2018-05-09T00:45:27.925Z,15.96
2018-05-09T00:47:55.340Z,15.94
2018-05-09T00:50:22.743Z,15.88
2018-05-09T00:52:50.152Z,15.83
2018-05-09T00:55:17.571Z,15.81
2018-05-09T00:57:44.968Z,15.78
2018-05-09T01:00:12.373Z,15.76
2018-05-09T01:02:40.070Z,15.74
2018-05-09T01:05:07.464Z,15.69
2018-05-09T01:07:34.860Z,15.67
2018-05-09T01:10:02.269Z,15.63
2018-05-09T01:12:29.688Z,15.61
2018-05-09T01:14:57.085Z,15.56
2018-05-09T01:17:24.481Z,15.54
2018-05-09T01:19:51.897Z,15.53
2018-05-09T01:22:19.283Z,15.50
2018-05-09T01:24:46.696Z,15.46
2018-05-09T01:27:14.093Z,15.45
2018-05-09T01:29:41.516Z,15.44
2018-05-09T01:32:08.917Z,15.43
2018-05-09T01:34:36.332Z,15.38
2018-05-09T01:37:03.732Z,15.34
2018-05-09T01:39:31.134Z,15.29
2018-05-09T01:41:58.566Z,15.25
2018-05-09T01:44:25.971Z,15.21
2018-05-09T01:46:53.393Z,15.17
2018-05-09T01:49:20.792Z,15.14
2018-05-09T01:51:48.224Z,15.15
2018-05-09T01:54:15.622Z,15.17
2018-05-09T01:56:43.021Z,15.15
2018-05-09T01:59:10.432Z,15.14
2018-05-09T02:01:37.827Z,15.16
2018-05-09T02:04:05.247Z,15.16
2018-05-09T02:06:32.645Z,15.18
2018-05-09T02:09:00.064Z,15.17
2018-05-09T02:11:27.460Z,15.11
2018-05-09T02:13:54.876Z,15.09
2018-05-09T02:16:22.344Z,15.08
2018-05-09T02:18:49.739Z,14.97
2018-05-09T02:21:17.144Z,14.96
2018-05-09T02:23:44.560Z,14.87
2018-05-09T02:26:11.993Z,14.83
2018-05-09T02:28:39.388Z,14.76
2018-05-09T02:31:06.829Z,14.73
2018-05-09T02:33:34.216Z,14.72
2018-05-09T02:36:01.631Z,14.70
2018-05-09T02:38:29.046Z,14.69
2018-05-09T02:40:56.444Z,14.68
2018-05-09T02:43:23.853Z,14.66
2018-05-09T02:45:51.508Z,14.63
2018-05-09T02:48:18.909Z,14.58
2018-05-09T02:50:46.321Z,14.55
2018-05-09T02:53:13.744Z,14.52
2018-05-09T02:55:41.156Z,14.50
2018-05-09T02:58:08.623Z,14.49
2018-05-09T03:00:36.024Z,14.47
2018-05-09T03:03:03.426Z,14.44
2018-05-09T03:05:30.842Z,14.38
2018-05-09T03:07:58.244Z,14.35
2018-05-09T03:10:25.656Z,14.33
2018-05-09T03:12:53.072Z,14.35
2018-05-09T03:15:20.495Z,14.38
2018-05-09T03:17:48.197Z,14.39
2018-05-09T03:20:15.592Z,14.37
2018-05-09T03:22:42.998Z,14.34
2018-05-09T03:25:10.404Z,14.32
2018-05-09T03:27:37.811Z,14.29
2018-05-09T03:30:05.486Z,14.25
2018-05-09T03:32:32.887Z,14.25
2018-05-09T03:35:00.303Z,14.26
2018-05-09T03:37:27.767Z,14.26
2018-05-09T03:39:55.124Z,14.28
2018-05-09T03:42:22.834Z,14.31
2018-05-09T03:44:50.235Z,14.36
2018-05-09T03:47:17.643Z,14.39
2018-05-09T03:49:45.066Z,14.39
2018-05-09T03:52:12.519Z,14.38
2018-05-09T03:54:39.924Z,14.38
2018-05-09T03:57:07.332Z,14.41
2018-05-09T03:59:34.749Z,14.44
2018-05-09T04:02:14.091Z,14.47
2018-05-09T04:04:53.368Z,14.50
2018-05-09T04:07:32.563Z,14.48
2018-05-09T04:09:59.975Z,14.49
2018-05-09T04:12:27.376Z,14.50
2018-05-09T04:14:54.816Z,14.51
2018-05-09T04:17:22.188Z,14.53
2018-05-09T04:19:49.617Z,14.57
2018-05-09T04:22:17.017Z,14.61
2018-05-09T04:24:44.467Z,14.65
2018-05-09T04:27:11.879Z,14.60
2018-05-09T04:29:39.277Z,14.71
2018-05-09T04:32:06.701Z,14.82
2018-05-09T04:34:34.100Z,14.93
2018-05-09T04:37:01.497Z,15.23
2018-05-09T04:39:28.964Z,15.75
2018-05-09T04:41:56.352Z,16.36
2018-05-09T04:44:23.768Z,16.98
2018-05-09T04:46:51.161Z,17.51
2018-05-09T04:49:18.552Z,18.05
2018-05-09T04:51:45.968Z,18.56
2018-05-09T04:54:13.365Z,19.12
2018-05-09T04:56:41.156Z,19.63
2018-05-09T04:59:08.548Z,20.07
2018-05-09T05:01:35.975Z,20.45
2018-05-09T05:04:03.387Z,21.00
2018-05-09T05:06:31.491Z,21.55
2018-05-09T05:08:59.212Z,22.17
2018-05-09T05:11:26.609Z,22.89
2018-05-09T05:13:54.016Z,23.41
2018-05-09T05:16:21.748Z,23.88
2018-05-09T05:18:49.139Z,24.29
2018-05-09T05:21:16.540Z,24.94
2018-05-09T05:23:43.952Z,25.55
2018-05-09T05:26:11.371Z,25.84
2018-05-09T05:28:38.780Z,26.36
2018-05-09T05:31:06.185Z,26.84
2018-05-09T05:33:33.592Z,27.32
2018-05-09T05:36:00.988Z,27.79
2018-05-09T05:38:28.423Z,28.12
2018-05-09T05:40:55.820Z,28.31
2018-05-09T05:43:23.228Z,28.49
2018-05-09T05:45:50.644Z,28.73
2018-05-09T05:48:18.057Z,28.69
2018-05-09T05:50:45.698Z,28.74
2018-05-09T05:53:13.089Z,28.84
2018-05-09T05:55:40.497Z,28.92
2018-05-09T05:58:07.919Z,28.67
2018-05-09T06:00:35.312Z,28.37
2018-05-09T06:03:02.736Z,28.11
2018-05-09T06:05:30.171Z,27.97
2018-05-09T06:07:57.595Z,28.01
2018-05-09T06:10:24.976Z,28.13
2018-05-09T06:12:52.388Z,28.34
2018-05-09T06:15:19.805Z,28.67
2018-05-09T06:17:47.205Z,28.95
2018-05-09T06:20:14.623Z,29.01
2018-05-09T06:22:42.044Z,28.88
2018-05-09T06:25:09.449Z,29.09
2018-05-09T06:27:36.925Z,29.52
2018-05-09T06:30:04.332Z,29.74
2018-05-09T06:32:31.732Z,29.88
2018-05-09T06:34:59.195Z,29.78
2018-05-09T06:37:26.589Z,29.87
2018-05-09T06:39:54.042Z,29.68
2018-05-09T06:42:21.456Z,29.74
2018-05-09T06:44:48.851Z,29.88
2018-05-09T06:47:16.273Z,30.27
2018-05-09T06:49:43.668Z,30.49
2018-05-09T06:52:11.059Z,30.67
2018-05-09T06:54:38.480Z,30.91
2018-05-09T06:57:05.916Z,30.81
2018-05-09T06:59:33.327Z,31.00
2018-05-09T07:02:00.720Z,31.13
2018-05-09T07:04:28.138Z,31.14
2018-05-09T07:06:55.639Z,30.95
2018-05-09T07:09:23.031Z,30.82
2018-05-09T07:11:50.436Z,30.71
2018-05-09T07:14:17.844Z,30.87
2018-05-09T07:16:45.237Z,30.95
2018-05-09T07:19:12.659Z,31.08
2018-05-09T07:21:40.048Z,31.39
2018-05-09T07:24:07.469Z,31.58
2018-05-09T07:26:34.864Z,31.55
2018-05-09T07:29:02.256Z,31.01
2018-05-09T07:31:29.667Z,31.16
2018-05-09T07:33:57.060Z,31.29
2018-05-09T07:36:24.577Z,31.52
2018-05-09T07:38:51.979Z,31.77
2018-05-09T07:41:19.395Z,31.94
2018-05-09T07:43:46.788Z,31.91
2018-05-09T07:46:14.216Z,31.95
2018-05-09T07:48:41.625Z,31.94
2018-05-09T07:51:09.092Z,32.08
2018-05-09T07:53:36.647Z,32.03
2018-05-09T07:56:04.041Z,32.00
2018-05-09T07:58:31.436Z,32.23
2018-05-09T08:00:58.916Z,32.34
2018-05-09T08:03:26.320Z,32.23
2018-05-09T08:05:53.839Z,32.12
2018-05-09T08:08:21.155Z,32.24
2018-05-09T08:10:48.616Z,31.99
2018-05-09T08:13:16.026Z,31.98
2018-05-09T08:15:43.428Z,32.16
2018-05-09T08:18:10.840Z,32.31
2018-05-09T08:20:38.236Z,32.32
2018-05-09T08:23:05.636Z,32.41
2018-05-09T08:25:33.063Z,32.35
2018-05-09T08:28:00.451Z,32.14
2018-05-09T08:30:27.880Z,32.08
2018-05-09T08:32:55.331Z,32.17
2018-05-09T08:35:22.719Z,32.15
2018-05-09T08:37:50.465Z,32.06
2018-05-09T08:40:18.218Z,31.96
2018-05-09T08:42:45.632Z,31.78
2018-05-09T08:45:13.037Z,31.55
2018-05-09T08:47:40.458Z,30.86
2018-05-09T08:50:07.922Z,30.69
2018-05-09T08:52:35.344Z,30.52
2018-05-09T08:55:02.733Z,30.38
2018-05-09T08:57:30.163Z,30.41
2018-05-09T08:59:57.589Z,29.95
2018-05-09T09:02:25.015Z,30.11
2018-05-09T09:04:52.428Z,30.39
2018-05-09T09:07:19.824Z,30.60
2018-05-09T09:09:47.239Z,30.89
2018-05-09T09:12:14.636Z,30.97
2018-05-09T09:14:42.068Z,31.02
2018-05-09T09:17:09.456Z,31.16
2018-05-09T09:19:36.861Z,31.22
2018-05-09T09:22:04.284Z,31.39
2018-05-09T09:24:31.699Z,31.64
2018-05-09T09:26:59.110Z,31.78
2018-05-09T09:29:26.500Z,31.87
2018-05-09T09:31:53.917Z,31.97
2018-05-09T09:34:21.327Z,32.07
2018-05-09T09:36:48.723Z,32.24
2018-05-09T09:39:16.161Z,32.37
2018-05-09T09:41:43.555Z,32.14
2018-05-09T09:44:10.952Z,32.37
2018-05-09T09:46:38.368Z,32.56
2018-05-09T09:49:05.792Z,32.62
2018-05-09T09:51:33.217Z,32.37
2018-05-09T09:54:00.627Z,31.78
2018-05-09T09:56:28.280Z,31.29
2018-05-09T09:58:55.739Z,30.78
2018-05-09T10:01:23.151Z,30.38
2018-05-09T10:03:50.576Z,30.22
2018-05-09T10:06:17.967Z,30.02
2018-05-09T10:08:45.371Z,29.89
2018-05-09T10:11:12.808Z,29.65
2018-05-09T10:13:40.237Z,29.31
2018-05-09T10:16:07.724Z,29.27
2018-05-09T10:18:35.060Z,29.07
2018-05-09T10:21:02.456Z,29.08
2018-05-09T10:23:29.888Z,29.00
2018-05-09T10:25:57.403Z,28.77
2018-05-09T10:28:24.800Z,28.67
2018-05-09T10:30:52.248Z,28.66
2018-05-09T10:33:19.667Z,28.68
2018-05-09T10:35:47.076Z,28.64
2018-05-09T10:38:14.466Z,28.67
2018-05-09T10:40:41.884Z,28.52
2018-05-09T10:43:09.281Z,28.45
2018-05-09T10:45:36.716Z,28.30
2018-05-09T10:48:04.121Z,28.22
2018-05-09T10:50:31.514Z,28.10
2018-05-09T10:52:58.927Z,27.97
2018-05-09T10:55:27.244Z,27.92
2018-05-09T10:57:54.672Z,27.90
2018-05-09T11:00:22.080Z,28.03
2018-05-09T11:02:49.485Z,27.97
2018-05-09T11:05:16.884Z,28.02
2018-05-09T11:07:44.284Z,28.11
2018-05-09T11:10:11.703Z,28.10
2018-05-09T11:12:39.100Z,28.11
2018-05-09T11:15:06.544Z,28.07
2018-05-09T11:17:34.005Z,28.01
2018-05-09T11:20:01.342Z,28.06
2018-05-09T11:22:28.775Z,28.02
2018-05-09T11:24:56.226Z,28.02
2018-05-09T11:27:23.626Z,28.11
2018-05-09T11:29:51.059Z,28.20
2018-05-09T11:32:18.461Z,28.44
2018-05-09T11:34:46.017Z,28.45
2018-05-09T11:37:13.416Z,28.61
2018-05-09T11:39:40.812Z,28.55
2018-05-09T11:42:08.252Z,28.69
2018-05-09T11:44:35.645Z,28.73
2018-05-09T11:47:03.059Z,28.81
2018-05-09T11:49:30.480Z,28.88
2018-05-09T11:51:57.884Z,28.98
2018-05-09T11:54:25.339Z,29.02
2018-05-09T11:56:52.737Z,28.99
2018-05-09T11:59:20.133Z,29.01
2018-05-09T12:01:47.543Z,29.06
2018-05-09T12:04:14.935Z,29.03
2018-05-09T12:06:42.352Z,28.99
2018-05-09T12:09:09.806Z,29.02
2018-05-09T12:11:37.216Z,29.04
2018-05-09T12:14:04.613Z,29.20
2018-05-09T12:16:32.036Z,29.18
2018-05-09T12:18:59.435Z,29.13
2018-05-09T12:21:26.848Z,29.12
2018-05-09T12:23:54.259Z,29.13
2018-05-09T12:26:21.669Z,29.13
2018-05-09T12:28:49.104Z,29.22
2018-05-09T12:31:16.508Z,29.20
2018-05-09T12:33:43.904Z,29.09
2018-05-09T12:36:11.320Z,28.86
2018-05-09T12:38:38.739Z,28.62
2018-05-09T12:41:06.200Z,28.45
2018-05-09T12:43:33.600Z,28.29
2018-05-09T12:46:01.007Z,28.41
2018-05-09T12:48:28.444Z,28.41
2018-05-09T12:50:55.833Z,28.50
2018-05-09T12:53:23.254Z,28.61
2018-05-09T12:55:50.659Z,28.73
2018-05-09T12:58:18.060Z,28.72
2018-05-09T13:00:45.504Z,28.79
2018-05-09T13:03:12.913Z,28.85
2018-05-09T13:05:40.312Z,28.90
2018-05-09T13:08:07.728Z,28.87
2018-05-09T13:10:35.132Z,28.83
2018-05-09T13:13:02.577Z,28.94
2018-05-09T13:15:29.968Z,28.97
2018-05-09T13:17:57.361Z,28.85
2018-05-09T13:20:24.779Z,28.83
2018-05-09T13:22:52.183Z,28.84
2018-05-09T13:25:19.580Z,28.62
2018-05-09T13:27:46.996Z,28.60
2018-05-09T13:30:14.399Z,28.50
2018-05-09T13:32:41.810Z,28.66
2018-05-09T13:35:09.233Z,28.83
2018-05-09T13:37:36.656Z,28.82
2018-05-09T13:40:04.090Z,28.73
2018-05-09T13:42:31.473Z,28.85
2018-05-09T13:44:58.888Z,28.86
2018-05-09T13:47:26.292Z,28.70
2018-05-09T13:49:53.708Z,28.78
2018-05-09T13:52:21.107Z,28.76
2018-05-09T13:54:48.508Z,28.94
2018-05-09T13:57:15.930Z,28.83
2018-05-09T13:59:43.327Z,28.84
2018-05-09T14:02:10.728Z,28.89
2018-05-09T14:04:38.164Z,28.87
2018-05-09T14:07:05.564Z,29.01
2018-05-09T14:09:32.958Z,28.95
2018-05-09T14:12:00.385Z,28.95
2018-05-09T14:14:27.908Z,28.77
2018-05-09T14:16:55.325Z,28.86
2018-05-09T14:19:22.725Z,28.80
2018-05-09T14:21:50.140Z,28.72
2018-05-09T14:24:17.541Z,28.54
2018-05-09T14:26:44.961Z,28.26
2018-05-09T14:29:13.165Z,28.02
2018-05-09T14:31:40.580Z,27.83
2018-05-09T14:34:07.981Z,27.80
2018-05-09T14:36:35.400Z,27.77
2018-05-09T14:39:03.480Z,27.68
2018-05-09T14:41:30.885Z,27.53
2018-05-09T14:43:58.296Z,27.32
2018-05-09T14:46:25.687Z,27.23
2018-05-09T14:48:53.107Z,27.16
2018-05-09T14:51:20.505Z,27.11
2018-05-09T14:53:47.904Z,27.07
2018-05-09T14:56:15.714Z,26.91
2018-05-09T14:58:43.113Z,26.90
2018-05-09T15:01:10.510Z,26.91
2018-05-09T15:03:37.928Z,26.96
2018-05-09T15:06:05.330Z,27.04
2018-05-09T15:08:32.810Z,27.13
2018-05-09T15:11:00.170Z,27.16
2018-05-09T15:13:27.569Z,27.23
2018-05-09T15:15:54.988Z,27.29
2018-05-09T15:18:22.432Z,27.33
2018-05-09T15:20:49.832Z,27.36
2018-05-09T15:23:17.236Z,27.41
2018-05-09T15:25:44.648Z,27.46
2018-05-09T15:28:12.044Z,27.44
2018-05-09T15:30:39.450Z,27.47
2018-05-09T15:33:07.149Z,27.50
2018-05-09T15:35:34.540Z,27.54
2018-05-09T15:38:01.949Z,27.40
2018-05-09T15:40:29.357Z,27.37
2018-05-09T15:42:56.817Z,27.41
2018-05-09T15:45:24.248Z,27.39
2018-05-09T15:47:51.700Z,27.30
2018-05-09T15:50:19.223Z,27.35
2018-05-09T15:52:46.612Z,27.41
2018-05-09T15:55:14.012Z,27.44
2018-05-09T15:57:41.438Z,27.56
2018-05-09T16:00:08.920Z,27.59
2018-05-09T16:02:36.263Z,27.50
2018-05-09T16:05:03.678Z,27.47
2018-05-09T16:07:31.063Z,27.49
2018-05-09T16:09:58.465Z,27.51
2018-05-09T16:12:25.896Z,27.52
2018-05-09T16:14:53.288Z,27.48
2018-05-09T16:17:20.706Z,27.39
2018-05-09T16:19:48.097Z,27.40
2018-05-09T16:22:15.498Z,27.40
2018-05-09T16:24:43.236Z,27.31
2018-05-09T16:27:10.670Z,27.38
2018-05-09T16:29:38.072Z,27.32
2018-05-09T16:32:05.480Z,27.42
2018-05-09T16:34:32.884Z,27.44
2018-05-09T16:37:00.648Z,27.35
2018-05-09T16:39:28.066Z,27.23
2018-05-09T16:41:55.468Z,27.18
2018-05-09T16:44:22.896Z,27.19
2018-05-09T16:46:50.341Z,27.24
2018-05-09T16:49:18.000Z,27.23
2018-05-09T16:51:45.399Z,27.19
2018-05-09T16:54:12.802Z,27.14
2018-05-09T16:56:40.516Z,27.11
2018-05-09T16:59:07.914Z,27.14
2018-05-09T17:01:35.500Z,27.13
2018-05-09T17:04:03.002Z,27.12
2018-05-09T17:06:30.704Z,27.07
2018-05-09T17:08:58.103Z,27.02
2018-05-09T17:11:25.538Z,27.03
2018-05-09T17:13:52.980Z,27.01
2018-05-09T17:16:20.388Z,26.95
2018-05-09T17:18:47.791Z,26.91
2018-05-09T17:21:32.751Z,26.91
2018-05-09T17:24:00.168Z,26.89
2018-05-09T17:26:27.563Z,26.85
2018-05-09T17:28:54.975Z,26.87
2018-05-09T17:31:22.376Z,26.80
2018-05-09T17:33:49.791Z,26.77
2018-05-09T17:36:17.192Z,26.75
2018-05-09T17:38:44.669Z,26.78
2018-05-09T17:41:12.009Z,26.74
2018-05-09T17:43:39.424Z,26.72
2018-05-09T17:46:06.828Z,26.68
2018-05-09T17:48:34.268Z,26.71
2018-05-09T17:51:01.668Z,26.66
2018-05-09T17:53:29.194Z,26.61
2018-05-09T17:55:56.749Z,26.56
2018-05-09T17:58:24.168Z,26.57
2018-05-09T18:00:51.593Z,26.53
2018-05-09T18:03:18.996Z,26.49
2018-05-09T18:05:46.412Z,26.43
2018-05-09T18:08:13.821Z,26.40
2018-05-09T18:10:41.232Z,26.38
2018-05-09T18:13:08.643Z,26.36
2018-05-09T18:15:36.044Z,26.29
2018-05-09T18:18:03.704Z,26.24
2018-05-09T18:20:31.100Z,26.17
2018-05-09T18:22:58.499Z,26.11
2018-05-09T18:25:25.964Z,26.07
2018-05-09T18:27:53.683Z,26.05
2018-05-09T18:30:21.084Z,25.95
2018-05-09T18:32:48.541Z,25.90
2018-05-09T18:35:15.965Z,25.87
2018-05-09T18:37:43.370Z,25.81
2018-05-09T18:40:10.838Z,25.75
2018-05-09T18:42:38.233Z,25.68
2018-05-09T18:45:05.637Z,25.61
2018-05-09T18:47:33.059Z,25.55
2018-05-09T18:50:00.455Z,25.48
2018-05-09T18:52:27.880Z,25.38
2018-05-09T18:54:55.291Z,25.30
2018-05-09T18:57:22.687Z,25.25
2018-05-09T18:59:50.553Z,25.16
2018-05-09T19:02:17.867Z,25.05
2018-05-09T19:04:45.300Z,24.96
2018-05-09T19:07:12.783Z,24.86
2018-05-09T19:09:40.196Z,24.79
2018-05-09T19:12:07.602Z,24.66
2018-05-09T19:14:35.012Z,24.60
2018-05-09T19:17:02.443Z,24.55
2018-05-09T19:19:29.840Z,24.42
2018-05-09T19:21:57.383Z,24.38
2018-05-09T19:24:24.816Z,24.31
2018-05-09T19:26:52.212Z,24.24
2018-05-09T19:29:19.651Z,24.19
2018-05-09T19:31:47.052Z,24.16
2018-05-09T19:34:14.476Z,24.10
2018-05-09T19:36:41.918Z,24.05
2018-05-09T19:39:09.314Z,23.98
2018-05-09T19:41:36.827Z,23.93
2018-05-09T19:44:04.158Z,23.87
2018-05-09T19:46:31.572Z,23.81
2018-05-09T19:48:58.981Z,23.79
2018-05-09T19:51:26.389Z,23.71
2018-05-09T19:53:53.809Z,23.65
2018-05-09T19:56:21.205Z,23.63
2018-05-09T19:58:48.600Z,23.58
2018-05-09T20:01:16.013Z,23.51
2018-05-09T20:03:43.423Z,23.42
2018-05-09T20:06:10.866Z,23.35
2018-05-09T20:08:38.402Z,23.29
2018-05-09T20:11:05.785Z,23.23
2018-05-09T20:13:33.173Z,23.18
2018-05-09T20:16:00.571Z,23.11
2018-05-09T20:18:28.464Z,23.03
2018-05-09T20:20:55.851Z,22.96
2018-05-09T20:23:23.251Z,22.90
2018-05-09T20:25:50.857Z,22.84
2018-05-09T20:28:18.307Z,22.81
2018-05-09T20:30:51.257Z,22.75
2018-05-09T20:33:18.708Z,22.70
2018-05-09T20:35:46.107Z,22.65
2018-05-09T20:38:13.501Z,22.60
2018-05-09T20:40:40.926Z,22.54
2018-05-09T20:43:08.315Z,22.49
2018-05-09T20:45:35.709Z,22.44
2018-05-09T20:48:03.133Z,22.39
2018-05-09T20:50:30.532Z,22.35
2018-05-09T20:52:57.966Z,22.30
2018-05-09T20:55:29.126Z,22.23
2018-05-09T20:57:56.545Z,22.18
2018-05-09T21:00:23.959Z,22.14
2018-05-09T21:02:51.404Z,22.07
2018-05-09T21:05:18.816Z,22.02
2018-05-09T21:07:56.280Z,21.98
2018-05-09T21:10:23.729Z,21.91
2018-05-09T21:12:51.137Z,21.86
2018-05-09T21:15:18.547Z,21.81
2018-05-09T21:17:45.956Z,21.76
2018-05-09T21:20:13.451Z,21.72
2018-05-09T21:22:40.783Z,21.67
2018-05-09T21:25:08.176Z,21.63
2018-05-09T21:27:35.649Z,21.59
2018-05-09T21:30:03.007Z,21.54
2018-05-09T21:32:30.428Z,21.48
2018-05-09T21:34:57.839Z,21.44
2018-05-09T21:37:25.244Z,21.38
2018-05-09T21:39:52.664Z,21.31
2018-05-09T21:42:20.068Z,21.26
2018-05-09T21:44:47.496Z,21.21
2018-05-09T21:47:14.920Z,21.17
2018-05-09T21:49:42.343Z,21.10
2018-05-09T21:52:09.747Z,21.05
2018-05-09T21:54:37.159Z,21.01
2018-05-09T21:57:04.568Z,20.97
2018-05-09T21:59:31.984Z,20.93
2018-05-09T22:01:59.384Z,20.88
2018-05-09T22:04:26.804Z,20.86
2018-05-09T22:06:54.220Z,20.81
2018-05-09T22:09:21.616Z,20.78
2018-05-09T22:11:49.052Z,20.74
2018-05-09T22:14:16.443Z,20.71
2018-05-09T22:16:43.852Z,20.68
2018-05-09T22:19:11.279Z,20.62
2018-05-09T22:21:38.684Z,20.55
2018-05-09T22:24:06.093Z,20.49
2018-05-09T22:26:33.497Z,20.41
2018-05-09T22:29:01.001Z,20.34
2018-05-09T22:31:28.407Z,20.25
2018-05-09T22:33:55.815Z,20.15
2018-05-09T22:36:23.252Z,20.10
2018-05-09T22:38:50.667Z,20.05
2018-05-09T22:41:18.093Z,20.02
2018-05-09T22:43:45.511Z,19.98
2018-05-09T22:46:12.891Z,19.96
2018-05-09T22:48:40.328Z,19.91
2018-05-09T22:51:07.730Z,19.83
2018-05-09T22:53:35.346Z,19.77
2018-05-09T22:56:02.813Z,19.69
2018-05-09T22:58:30.213Z,19.46
2018-05-09T23:00:57.636Z,19.34
2018-05-09T23:03:25.047Z,19.26
2018-05-09T23:05:52.476Z,19.19
2018-05-09T23:08:19.905Z,19.12
2018-05-09T23:10:47.337Z,19.03
2018-05-09T23:13:14.759Z,18.99
2018-05-09T23:15:42.172Z,18.93
2018-05-09T23:18:09.599Z,18.89
2018-05-09T23:20:37.040Z,18.85
2018-05-09T23:23:04.469Z,18.85
2018-05-09T23:25:31.890Z,18.82
2018-05-09T23:27:59.303Z,18.81
2018-05-09T23:30:26.724Z,18.78
2018-05-09T23:32:54.131Z,18.76
2018-05-09T23:35:21.548Z,18.76
2018-05-09T23:37:48.947Z,18.76
2018-05-09T23:40:16.380Z,18.77
2018-05-09T23:42:43.789Z,18.76
2018-05-09T23:45:11.190Z,18.75
2018-05-09T23:47:38.616Z,18.75
2018-05-09T23:50:06.029Z,18.73
2018-05-09T23:52:33.468Z,18.73
2018-05-09T23:55:00.871Z,18.72
2018-05-09T23:57:28.295Z,18.71
2018-05-09T23:59:55.757Z,18.69
